sensor_id;sensor_type;location;lat;lon;timestamp;P1;P2;P0
78512;PMS5003;67809;55.034;73.462;2023-12-20T00:01:01;28.75;21.50;13.50
78512;PMS5003;67809;55.034;73.462;2023-12-20T00:03:27;34.25;26.25;15.50
78512;PMS5003;67809;55.034;73.462;2023-12-20T00:05:53;38.25;29.00;18.25
78512;PMS5003;67809;55.034;73.462;2023-12-20T00:08:19;44.00;32.25;19.75
78512;PMS5003;67809;55.034;73.462;2023-12-20T00:10:45;55.00;42.00;26.00
78512;PMS5003;67809;55.034;73.462;2023-12-20T00:13:11;63.50;46.25;29.75
78512;PMS5003;67809;55.034;73.462;2023-12-20T00:15:38;52.25;39.75;26.00
78512;PMS5003;67809;55.034;73.462;2023-12-20T00:18:04;49.25;38.50;24.75
78512;PMS5003;67809;55.034;73.462;2023-12-20T00:20:30;47.00;35.67;23.00
78512;PMS5003;67809;55.034;73.462;2023-12-20T00:22:57;51.25;37.00;22.50
78512;PMS5003;67809;55.034;73.462;2023-12-20T00:25:23;57.50;40.50;26.00
78512;PMS5003;67809;55.034;73.462;2023-12-20T00:27:50;54.50;41.00;25.50
78512;PMS5003;67809;55.034;73.462;2023-12-20T00:30:16;58.67;44.00;28.00
78512;PMS5003;67809;55.034;73.462;2023-12-20T00:32:42;59.25;43.75;27.50
78512;PMS5003;67809;55.034;73.462;2023-12-20T00:35:14;60.75;44.50;29.25
78512;PMS5003;67809;55.034;73.462;2023-12-20T00:37:41;55.25;40.00;26.00
78512;PMS5003;67809;55.034;73.462;2023-12-20T00:40:07;48.00;36.33;22.33
78512;PMS5003;67809;55.034;73.462;2023-12-20T00:42:33;44.75;33.75;20.75
78512;PMS5003;67809;55.034;73.462;2023-12-20T00:44:59;43.50;31.00;19.25
78512;PMS5003;67809;55.034;73.462;2023-12-20T00:47:26;44.00;32.75;20.25
78512;PMS5003;67809;55.034;73.462;2023-12-20T00:49:52;46.67;35.33;21.67
78512;PMS5003;67809;55.034;73.462;2023-12-20T00:52:18;45.50;33.00;20.00
78512;PMS5003;67809;55.034;73.462;2023-12-20T00:54:44;47.00;34.00;21.00
78512;PMS5003;67809;55.034;73.462;2023-12-20T00:57:11;51.50;38.00;22.75
78512;PMS5003;67809;55.034;73.462;2023-12-20T00:59:37;47.00;33.67;20.00
78512;PMS5003;67809;55.034;73.462;2023-12-20T01:02:03;50.25;36.00;22.25
78512;PMS5003;67809;55.034;73.462;2023-12-20T01:04:29;49.75;36.25;22.25
78512;PMS5003;67809;55.034;73.462;2023-12-20T01:06:55;51.00;38.00;22.25
78512;PMS5003;67809;55.034;73.462;2023-12-20T01:09:21;51.75;36.75;22.25
78512;PMS5003;67809;55.034;73.462;2023-12-20T01:11:52;54.75;39.25;23.50
78512;PMS5003;67809;55.034;73.462;2023-12-20T01:14:18;60.75;44.00;26.00
78512;PMS5003;67809;55.034;73.462;2023-12-20T01:16:44;67.75;49.00;29.00
78512;PMS5003;67809;55.034;73.462;2023-12-20T01:19:10;73.75;54.00;31.75
78512;PMS5003;67809;55.034;73.462;2023-12-20T01:21:37;74.67;54.33;32.67
78512;PMS5003;67809;55.034;73.462;2023-12-20T01:24:03;73.25;50.50;31.00
78512;PMS5003;67809;55.034;73.462;2023-12-20T01:26:29;70.75;50.00;30.00
78512;PMS5003;67809;55.034;73.462;2023-12-20T01:28:55;64.25;46.50;28.25
78512;PMS5003;67809;55.034;73.462;2023-12-20T01:31:21;66.33;46.67;29.33
78512;PMS5003;67809;55.034;73.462;2023-12-20T01:33:47;65.50;47.00;28.25
78512;PMS5003;67809;55.034;73.462;2023-12-20T01:36:13;66.00;47.00;28.25
78512;PMS5003;67809;55.034;73.462;2023-12-20T01:38:40;62.00;44.50;27.75
78512;PMS5003;67809;55.034;73.462;2023-12-20T01:41:06;64.50;46.75;28.00
78512;PMS5003;67809;55.034;73.462;2023-12-20T01:43:32;65.50;47.50;29.25
78512;PMS5003;67809;55.034;73.462;2023-12-20T01:45:58;61.50;45.75;26.25
78512;PMS5003;67809;55.034;73.462;2023-12-20T01:48:25;65.00;46.00;28.00
78512;PMS5003;67809;55.034;73.462;2023-12-20T01:50:51;70.75;47.00;27.25
78512;PMS5003;67809;55.034;73.462;2023-12-20T01:53:18;73.50;51.00;29.00
78512;PMS5003;67809;55.034;73.462;2023-12-20T01:55:45;63.75;45.00;26.75
78512;PMS5003;67809;55.034;73.462;2023-12-20T01:58:11;58.00;43.00;25.75
78512;PMS5003;67809;55.034;73.462;2023-12-20T02:00:38;50.33;37.00;22.00
78512;PMS5003;67809;55.034;73.462;2023-12-20T02:03:04;57.00;40.00;24.00
78512;PMS5003;67809;55.034;73.462;2023-12-20T02:05:31;53.25;39.50;23.50
78512;PMS5003;67809;55.034;73.462;2023-12-20T02:07:57;59.00;40.50;24.25
78512;PMS5003;67809;55.034;73.462;2023-12-20T02:10:23;56.00;40.67;24.67
78512;PMS5003;67809;55.034;73.462;2023-12-20T02:12:50;59.25;42.00;26.00
78512;PMS5003;67809;55.034;73.462;2023-12-20T02:15:16;64.75;45.25;26.50
78512;PMS5003;67809;55.034;73.462;2023-12-20T02:17:42;69.00;46.00;29.00
78512;PMS5003;67809;55.034;73.462;2023-12-20T02:20:09;64.25;45.25;28.00
78512;PMS5003;67809;55.034;73.462;2023-12-20T02:22:35;66.25;47.50;27.75
78512;PMS5003;67809;55.034;73.462;2023-12-20T02:25:01;63.25;46.50;27.25
78512;PMS5003;67809;55.034;73.462;2023-12-20T02:27:27;68.50;49.50;29.75
78512;PMS5003;67809;55.034;73.462;2023-12-20T02:29:53;73.50;51.00;31.50
78512;PMS5003;67809;55.034;73.462;2023-12-20T02:32:20;68.50;50.50;32.00
78512;PMS5003;67809;55.034;73.462;2023-12-20T02:34:47;61.25;46.00;29.00
78512;PMS5003;67809;55.034;73.462;2023-12-20T02:37:13;56.25;40.25;26.00
78512;PMS5003;67809;55.034;73.462;2023-12-20T02:39:40;58.00;40.75;26.00
78512;PMS5003;67809;55.034;73.462;2023-12-20T02:42:06;51.00;38.00;24.00
78512;PMS5003;67809;55.034;73.462;2023-12-20T02:44:32;52.00;39.00;24.00
78512;PMS5003;67809;55.034;73.462;2023-12-20T02:46:58;49.00;36.00;21.25
78512;PMS5003;67809;55.034;73.462;2023-12-20T02:49:24;42.75;31.50;19.50
78512;PMS5003;67809;55.034;73.462;2023-12-20T02:51:50;46.67;34.67;21.00
78512;PMS5003;67809;55.034;73.462;2023-12-20T02:54:16;44.75;33.00;20.75
78512;PMS5003;67809;55.034;73.462;2023-12-20T02:56:42;46.50;33.25;20.25
78512;PMS5003;67809;55.034;73.462;2023-12-20T02:59:09;45.50;31.50;20.00
78512;PMS5003;67809;55.034;73.462;2023-12-20T03:01:35;47.67;35.00;22.00
78512;PMS5003;67809;55.034;73.462;2023-12-20T03:04:01;42.50;32.50;20.75
78512;PMS5003;67809;55.034;73.462;2023-12-20T03:06:27;47.50;35.00;21.75
78512;PMS5003;67809;55.034;73.462;2023-12-20T03:08:53;42.25;32.50;20.00
78512;PMS5003;67809;55.034;73.462;2023-12-20T03:11:19;45.00;34.00;21.33
78512;PMS5003;67809;55.034;73.462;2023-12-20T03:13:45;50.25;37.00;23.00
78512;PMS5003;67809;55.034;73.462;2023-12-20T03:16:12;44.50;34.50;21.25
78512;PMS5003;67809;55.034;73.462;2023-12-20T03:18:38;50.75;38.50;24.50
78512;PMS5003;67809;55.034;73.462;2023-12-20T03:21:04;51.00;39.00;24.00
78512;PMS5003;67809;55.034;73.462;2023-12-20T03:23:31;51.00;38.00;24.50
78512;PMS5003;67809;55.034;73.462;2023-12-20T03:25:58;59.25;43.00;27.00
78512;PMS5003;67809;55.034;73.462;2023-12-20T03:28:26;58.75;42.50;27.25
78512;PMS5003;67809;55.034;73.462;2023-12-20T03:30:54;57.50;41.00;27.00
78512;PMS5003;67809;55.034;73.462;2023-12-20T03:33:20;61.00;44.75;27.50
78512;PMS5003;67809;55.034;73.462;2023-12-20T03:35:46;58.75;43.25;27.75
78512;PMS5003;67809;55.034;73.462;2023-12-20T03:38:12;62.75;47.25;30.00
78512;PMS5003;67809;55.034;73.462;2023-12-20T03:40:38;70.00;50.00;31.00
78512;PMS5003;67809;55.034;73.462;2023-12-20T03:43:05;73.33;51.00;31.67
78512;PMS5003;67809;55.034;73.462;2023-12-20T03:45:31;66.25;47.00;30.00
78512;PMS5003;67809;55.034;73.462;2023-12-20T03:47:57;99.00;74.25;43.50
78512;PMS5003;67809;55.034;73.462;2023-12-20T03:50:23;68.00;49.50;32.00
78512;PMS5003;67809;55.034;73.462;2023-12-20T03:52:49;68.00;48.67;29.67
78512;PMS5003;67809;55.034;73.462;2023-12-20T03:55:15;69.00;49.00;30.00
78512;PMS5003;67809;55.034;73.462;2023-12-20T03:57:41;66.75;50.00;31.00
78512;PMS5003;67809;55.034;73.462;2023-12-20T04:00:07;64.00;48.00;29.00
78512;PMS5003;67809;55.034;73.462;2023-12-20T04:02:40;58.67;45.00;28.00
78512;PMS5003;67809;55.034;73.462;2023-12-20T04:05:06;57.50;43.50;27.00
78512;PMS5003;67809;55.034;73.462;2023-12-20T04:07:33;57.00;43.50;28.50
78512;PMS5003;67809;55.034;73.462;2023-12-20T04:09:59;60.50;42.75;27.00
78512;PMS5003;67809;55.034;73.462;2023-12-20T04:12:26;57.00;41.00;25.00
78512;PMS5003;67809;55.034;73.462;2023-12-20T04:14:52;50.00;38.00;23.00
78512;PMS5003;67809;55.034;73.462;2023-12-20T04:17:18;56.75;42.75;25.50
78512;PMS5003;67809;55.034;73.462;2023-12-20T04:19:44;58.50;44.75;28.00
78512;PMS5003;67809;55.034;73.462;2023-12-20T04:22:10;65.00;48.25;29.00
78512;PMS5003;67809;55.034;73.462;2023-12-20T04:24:36;67.25;49.00;30.00
78512;PMS5003;67809;55.034;73.462;2023-12-20T04:27:02;61.50;45.75;28.00
78512;PMS5003;67809;55.034;73.462;2023-12-20T04:29:29;66.00;48.00;29.25
78512;PMS5003;67809;55.034;73.462;2023-12-20T04:31:55;64.25;45.50;29.00
78512;PMS5003;67809;55.034;73.462;2023-12-20T04:34:21;71.50;52.50;31.75
78512;PMS5003;67809;55.034;73.462;2023-12-20T04:36:47;64.75;48.00;30.00
78512;PMS5003;67809;55.034;73.462;2023-12-20T04:39:14;69.25;50.50;29.50
78512;PMS5003;67809;55.034;73.462;2023-12-20T04:41:43;61.00;47.00;27.00
78512;PMS5003;67809;55.034;73.462;2023-12-20T04:44:09;64.75;47.00;29.25
78512;PMS5003;67809;55.034;73.462;2023-12-20T04:46:35;64.75;47.00;29.00
78512;PMS5003;67809;55.034;73.462;2023-12-20T04:49:02;59.25;43.25;27.75
78512;PMS5003;67809;55.034;73.462;2023-12-20T04:51:28;55.00;41.00;26.25
78512;PMS5003;67809;55.034;73.462;2023-12-20T04:53:54;64.00;46.00;29.00
78512;PMS5003;67809;55.034;73.462;2023-12-20T04:56:20;57.25;42.50;26.75
78512;PMS5003;67809;55.034;73.462;2023-12-20T04:58:46;64.25;46.00;29.00
78512;PMS5003;67809;55.034;73.462;2023-12-20T05:01:12;64.75;46.00;28.75
78512;PMS5003;67809;55.034;73.462;2023-12-20T05:03:38;61.00;44.00;28.00
78512;PMS5003;67809;55.034;73.462;2023-12-20T05:06:05;57.00;42.25;26.00
78512;PMS5003;67809;55.034;73.462;2023-12-20T05:08:31;57.25;43.00;26.00
78512;PMS5003;67809;55.034;73.462;2023-12-20T05:10:57;56.00;41.25;25.00
78512;PMS5003;67809;55.034;73.462;2023-12-20T05:13:23;60.00;44.00;28.00
78512;PMS5003;67809;55.034;73.462;2023-12-20T05:15:49;56.00;43.25;27.00
78512;PMS5003;67809;55.034;73.462;2023-12-20T05:18:15;57.00;43.50;28.00
78512;PMS5003;67809;55.034;73.462;2023-12-20T05:20:41;59.25;43.75;27.00
78512;PMS5003;67809;55.034;73.462;2023-12-20T05:23:07;57.67;43.33;27.00
78512;PMS5003;67809;55.034;73.462;2023-12-20T05:25:33;57.50;42.75;27.00
78512;PMS5003;67809;55.034;73.462;2023-12-20T05:27:59;60.00;44.75;28.00
78512;PMS5003;67809;55.034;73.462;2023-12-20T05:30:25;62.00;45.75;28.75
78512;PMS5003;67809;55.034;73.462;2023-12-20T05:32:52;60.33;45.33;27.33
78512;PMS5003;67809;55.034;73.462;2023-12-20T05:35:18;65.50;48.00;30.00
78512;PMS5003;67809;55.034;73.462;2023-12-20T05:37:44;64.25;48.00;30.00
78512;PMS5003;67809;55.034;73.462;2023-12-20T05:40:11;64.00;48.00;31.00
78512;PMS5003;67809;55.034;73.462;2023-12-20T05:42:37;66.00;49.25;30.75
78512;PMS5003;67809;55.034;73.462;2023-12-20T05:45:04;64.50;49.00;30.25
78512;PMS5003;67809;55.034;73.462;2023-12-20T05:47:30;66.00;49.00;30.75
78512;PMS5003;67809;55.034;73.462;2023-12-20T05:49:56;61.25;46.00;28.25
78512;PMS5003;67809;55.034;73.462;2023-12-20T05:52:23;61.00;44.00;27.00
78512;PMS5003;67809;55.034;73.462;2023-12-20T05:54:49;55.50;42.25;26.50
78512;PMS5003;67809;55.034;73.462;2023-12-20T05:57:15;55.75;42.00;26.00
78512;PMS5003;67809;55.034;73.462;2023-12-20T05:59:41;58.00;43.00;27.00
78512;PMS5003;67809;55.034;73.462;2023-12-20T06:02:07;56.25;42.00;26.00
78512;PMS5003;67809;55.034;73.462;2023-12-20T06:04:33;48.50;37.50;24.00
78512;PMS5003;67809;55.034;73.462;2023-12-20T06:06:59;49.00;38.50;24.00
78512;PMS5003;67809;55.034;73.462;2023-12-20T06:09:28;47.00;37.00;23.00
78512;PMS5003;67809;55.034;73.462;2023-12-20T06:11:55;48.00;37.00;23.00
78512;PMS5003;67809;55.034;73.462;2023-12-20T06:14:21;47.75;36.25;23.75
78512;PMS5003;67809;55.034;73.462;2023-12-20T06:16:47;50.00;36.25;22.50
78512;PMS5003;67809;55.034;73.462;2023-12-20T06:19:13;43.25;33.00;21.00
78512;PMS5003;67809;55.034;73.462;2023-12-20T06:21:39;42.75;32.50;20.00
78512;PMS5003;67809;55.034;73.462;2023-12-20T06:24:06;44.50;33.00;21.50
78512;PMS5003;67809;55.034;73.462;2023-12-20T06:26:32;49.50;36.50;22.00
78512;PMS5003;67809;55.034;73.462;2023-12-20T06:28:58;48.25;36.00;22.75
78512;PMS5003;67809;55.034;73.462;2023-12-20T06:31:24;52.50;39.50;24.75
78512;PMS5003;67809;55.034;73.462;2023-12-20T06:33:50;53.25;39.00;25.25
78512;PMS5003;67809;55.034;73.462;2023-12-20T06:36:23;51.50;37.75;23.25
78512;PMS5003;67809;55.034;73.462;2023-12-20T06:38:50;51.00;39.00;25.00
78512;PMS5003;67809;55.034;73.462;2023-12-20T06:41:16;57.00;42.50;26.00
78512;PMS5003;67809;55.034;73.462;2023-12-20T06:43:42;53.25;40.25;25.50
78512;PMS5003;67809;55.034;73.462;2023-12-20T06:46:09;53.00;41.00;25.00
78512;PMS5003;67809;55.034;73.462;2023-12-20T06:48:36;48.50;36.00;22.50
78512;PMS5003;67809;55.034;73.462;2023-12-20T06:51:02;50.00;36.75;22.00
78512;PMS5003;67809;55.034;73.462;2023-12-20T06:53:28;44.33;33.00;20.00
78512;PMS5003;67809;55.034;73.462;2023-12-20T06:55:54;43.00;33.00;21.00
78512;PMS5003;67809;55.034;73.462;2023-12-20T06:58:22;43.00;33.50;20.25
78512;PMS5003;67809;55.034;73.462;2023-12-20T07:00:48;44.50;34.25;22.00
78512;PMS5003;67809;55.034;73.462;2023-12-20T07:03:14;42.00;33.67;21.00
78512;PMS5003;67809;55.034;73.462;2023-12-20T07:05:40;45.75;34.50;22.00
78512;PMS5003;67809;55.034;73.462;2023-12-20T07:08:06;48.00;35.00;22.00
78512;PMS5003;67809;55.034;73.462;2023-12-20T07:10:33;44.00;33.00;21.00
78512;PMS5003;67809;55.034;73.462;2023-12-20T07:13:03;46.80;35.20;22.00
78512;PMS5003;67809;55.034;73.462;2023-12-20T07:15:30;45.00;33.50;22.00
78512;PMS5003;67809;55.034;73.462;2023-12-20T07:17:56;45.00;33.25;21.00
78512;PMS5003;67809;55.034;73.462;2023-12-20T07:20:22;49.75;38.25;24.50
78512;PMS5003;67809;55.034;73.462;2023-12-20T07:22:48;51.00;38.00;24.00
78512;PMS5003;67809;55.034;73.462;2023-12-20T07:25:14;45.25;34.00;22.00
78512;PMS5003;67809;55.034;73.462;2023-12-20T07:27:40;44.50;34.50;21.25
78512;PMS5003;67809;55.034;73.462;2023-12-20T07:30:06;47.75;34.75;21.75
78512;PMS5003;67809;55.034;73.462;2023-12-20T07:32:32;71.50;54.50;35.75
78512;PMS5003;67809;55.034;73.462;2023-12-20T07:34:58;49.67;39.00;25.00
78512;PMS5003;67809;55.034;73.462;2023-12-20T07:37:25;47.75;36.00;24.00
78512;PMS5003;67809;55.034;73.462;2023-12-20T07:39:51;49.25;37.75;25.00
78512;PMS5003;67809;55.034;73.462;2023-12-20T07:42:17;46.75;36.25;22.25
78512;PMS5003;67809;55.034;73.462;2023-12-20T07:44:43;51.25;39.00;25.50
78512;PMS5003;67809;55.034;73.462;2023-12-20T07:47:09;54.50;41.00;25.00
78512;PMS5003;67809;55.034;73.462;2023-12-20T07:49:36;52.50;40.00;26.00
78512;PMS5003;67809;55.034;73.462;2023-12-20T07:52:02;61.50;44.50;28.75
78512;PMS5003;67809;55.034;73.462;2023-12-20T07:54:28;59.50;45.00;28.00
78512;PMS5003;67809;55.034;73.462;2023-12-20T07:56:55;58.25;43.50;27.50
78512;PMS5003;67809;55.034;73.462;2023-12-20T07:59:21;80.00;59.00;35.00
78512;PMS5003;67809;55.034;73.462;2023-12-20T08:01:47;59.00;44.00;28.00
78512;PMS5003;67809;55.034;73.462;2023-12-20T08:04:13;58.00;44.00;27.67
78512;PMS5003;67809;55.034;73.462;2023-12-20T08:06:39;54.75;42.50;26.00
78512;PMS5003;67809;55.034;73.462;2023-12-20T08:09:05;66.50;47.50;29.50
78512;PMS5003;67809;55.034;73.462;2023-12-20T08:11:31;63.00;48.00;29.00
78512;PMS5003;67809;55.034;73.462;2023-12-20T08:13:57;64.33;47.00;29.00
78512;PMS5003;67809;55.034;73.462;2023-12-20T08:16:24;64.00;47.00;28.00
78512;PMS5003;67809;55.034;73.462;2023-12-20T08:18:50;72.50;51.00;32.25
78512;PMS5003;67809;55.034;73.462;2023-12-20T08:21:16;59.00;44.00;27.00
78512;PMS5003;67809;55.034;73.462;2023-12-20T08:23:46;60.75;42.75;26.75
78512;PMS5003;67809;55.034;73.462;2023-12-20T08:26:13;55.25;41.75;26.00
78512;PMS5003;67809;55.034;73.462;2023-12-20T08:28:39;53.25;39.75;25.75
78512;PMS5003;67809;55.034;73.462;2023-12-20T08:31:13;51.75;39.00;24.75
78512;PMS5003;67809;55.034;73.462;2023-12-20T08:33:39;51.50;38.50;24.00
78512;PMS5003;67809;55.034;73.462;2023-12-20T08:36:05;56.00;42.00;26.00
78512;PMS5003;67809;55.034;73.462;2023-12-20T08:38:31;55.00;41.00;26.00
78512;PMS5003;67809;55.034;73.462;2023-12-20T08:40:57;49.00;37.00;23.00
78512;PMS5003;67809;55.034;73.462;2023-12-20T08:43:24;48.00;38.00;24.00
78512;PMS5003;67809;55.034;73.462;2023-12-20T08:45:50;46.00;35.00;22.00
78512;PMS5003;67809;55.034;73.462;2023-12-20T08:48:16;43.00;33.00;20.25
78512;PMS5003;67809;55.034;73.462;2023-12-20T08:50:42;49.00;38.00;23.00
78512;PMS5003;67809;55.034;73.462;2023-12-20T08:53:09;46.00;35.00;21.00
78512;PMS5003;67809;55.034;73.462;2023-12-20T08:55:35;48.00;35.00;22.00
78512;PMS5003;67809;55.034;73.462;2023-12-20T08:58:01;49.75;38.75;25.25
78512;PMS5003;67809;55.034;73.462;2023-12-20T09:00:27;49.75;37.75;23.75
78512;PMS5003;67809;55.034;73.462;2023-12-20T09:02:54;50.50;38.00;23.25
78512;PMS5003;67809;55.034;73.462;2023-12-20T09:05:20;47.00;34.50;21.75
78512;PMS5003;67809;55.034;73.462;2023-12-20T09:07:46;47.00;34.25;21.00
78512;PMS5003;67809;55.034;73.462;2023-12-20T09:10:13;43.50;34.00;22.75
78512;PMS5003;67809;55.034;73.462;2023-12-20T09:12:39;48.75;36.75;24.00
78512;PMS5003;67809;55.034;73.462;2023-12-20T09:15:06;50.50;38.75;24.50
78512;PMS5003;67809;55.034;73.462;2023-12-20T09:17:32;49.00;37.00;23.50
78512;PMS5003;67809;55.034;73.462;2023-12-20T09:19:58;55.00;39.00;25.00
78512;PMS5003;67809;55.034;73.462;2023-12-20T12:56:46;67.75;49.00;30.25
78512;PMS5003;67809;55.034;73.462;2023-12-20T12:59:13;69.25;50.25;31.75
78512;PMS5003;67809;55.034;73.462;2023-12-20T13:01:39;75.00;53.50;32.25
78512;PMS5003;67809;55.034;73.462;2023-12-20T13:04:17;68.75;50.00;30.75
78512;PMS5003;67809;55.034;73.462;2023-12-20T13:06:43;90.00;63.25;37.00
78512;PMS5003;67809;55.034;73.462;2023-12-20T13:09:09;71.75;51.00;32.00
78512;PMS5003;67809;55.034;73.462;2023-12-20T13:11:48;65.50;47.75;31.00
78512;PMS5003;67809;55.034;73.462;2023-12-20T13:14:20;60.75;45.00;29.00
78512;PMS5003;67809;55.034;73.462;2023-12-20T13:16:47;62.00;45.00;27.25
78512;PMS5003;67809;55.034;73.462;2023-12-20T13:19:33;64.75;47.25;30.00
78512;PMS5003;67809;55.034;73.462;2023-12-20T13:22:03;63.00;47.50;30.00
78512;PMS5003;67809;55.034;73.462;2023-12-20T13:24:29;65.25;47.75;29.75
78512;PMS5003;67809;55.034;73.462;2023-12-20T13:27:08;55.75;39.50;24.25
78512;PMS5003;67809;55.034;73.462;2023-12-20T13:29:34;50.50;38.50;24.00
78512;PMS5003;67809;55.034;73.462;2023-12-20T13:32:00;56.00;41.00;25.00
78512;PMS5003;67809;55.034;73.462;2023-12-20T13:34:26;49.00;37.50;23.00
78512;PMS5003;67809;55.034;73.462;2023-12-20T13:36:53;46.50;34.25;21.00
78512;PMS5003;67809;55.034;73.462;2023-12-20T13:39:21;45.25;34.50;22.00
78512;PMS5003;67809;55.034;73.462;2023-12-20T13:41:47;42.25;33.00;21.00
78512;PMS5003;67809;55.034;73.462;2023-12-20T13:44:14;40.50;31.25;19.50
78512;PMS5003;67809;55.034;73.462;2023-12-20T13:46:40;41.50;32.00;18.00
78512;PMS5003;67809;55.034;73.462;2023-12-20T13:49:26;41.00;30.00;18.50
78512;PMS5003;67809;55.034;73.462;2023-12-20T13:52:04;50.00;36.50;23.00
78512;PMS5003;67809;55.034;73.462;2023-12-20T13:54:39;49.75;36.25;22.00
78512;PMS5003;67809;55.034;73.462;2023-12-20T13:57:05;52.75;38.00;25.00
78512;PMS5003;67809;55.034;73.462;2023-12-20T13:59:31;56.00;41.00;25.25
78512;PMS5003;67809;55.034;73.462;2023-12-20T14:01:57;57.00;42.50;26.25
78512;PMS5003;67809;55.034;73.462;2023-12-20T14:04:24;52.00;40.00;25.00
78512;PMS5003;67809;55.034;73.462;2023-12-20T14:06:50;48.25;35.50;22.75
78512;PMS5003;67809;55.034;73.462;2023-12-20T14:09:16;43.25;32.50;20.00
78512;PMS5003;67809;55.034;73.462;2023-12-20T14:11:42;45.00;33.50;21.25
78512;PMS5003;67809;55.034;73.462;2023-12-20T14:14:08;45.50;34.75;22.00
78512;PMS5003;67809;55.034;73.462;2023-12-20T14:16:35;46.33;33.00;19.33
78512;PMS5003;67809;55.034;73.462;2023-12-20T14:19:01;48.50;35.00;21.00
78512;PMS5003;67809;55.034;73.462;2023-12-20T14:21:29;41.50;31.00;19.50
78512;PMS5003;67809;55.034;73.462;2023-12-20T14:23:55;37.25;27.75;17.75
78512;PMS5003;67809;55.034;73.462;2023-12-20T14:26:21;40.00;29.00;19.00
78512;PMS5003;67809;55.034;73.462;2023-12-20T14:28:47;39.00;28.00;17.00
78512;PMS5003;67809;55.034;73.462;2023-12-20T14:31:13;37.00;28.00;17.00
78512;PMS5003;67809;55.034;73.462;2023-12-20T14:33:39;37.75;28.50;17.00
78512;PMS5003;67809;55.034;73.462;2023-12-20T14:36:07;39.67;31.00;18.00
78512;PMS5003;67809;55.034;73.462;2023-12-20T14:38:33;33.00;25.25;15.50
78512;PMS5003;67809;55.034;73.462;2023-12-20T14:40:59;39.00;29.00;17.00
78512;PMS5003;67809;55.034;73.462;2023-12-20T14:43:25;38.50;29.25;17.25
78512;PMS5003;67809;55.034;73.462;2023-12-20T14:45:52;36.00;27.00;17.00
78512;PMS5003;67809;55.034;73.462;2023-12-20T14:48:19;31.50;24.00;14.00
78512;PMS5003;67809;55.034;73.462;2023-12-20T14:50:45;37.25;28.25;16.25
78512;PMS5003;67809;55.034;73.462;2023-12-20T14:53:14;41.00;32.00;19.00
78512;PMS5003;67809;55.034;73.462;2023-12-20T14:55:42;37.00;27.67;17.00
78512;PMS5003;67809;55.034;73.462;2023-12-20T14:58:08;36.00;28.00;15.00
78512;PMS5003;67809;55.034;73.462;2023-12-20T15:00:34;36.00;27.25;17.00
78512;PMS5003;67809;55.034;73.462;2023-12-20T15:03:00;41.25;28.50;15.75
78512;PMS5003;67809;55.034;73.462;2023-12-20T15:05:26;37.50;27.00;18.00
78512;PMS5003;67809;55.034;73.462;2023-12-20T15:07:52;34.50;26.25;15.50
78512;PMS5003;67809;55.034;73.462;2023-12-20T15:10:18;38.00;29.00;17.00
78512;PMS5003;67809;55.034;73.462;2023-12-20T15:12:46;42.00;32.00;19.00
78512;PMS5003;67809;55.034;73.462;2023-12-20T15:15:12;44.00;32.25;19.75
78512;PMS5003;67809;55.034;73.462;2023-12-20T15:17:39;50.50;38.25;24.00
78512;PMS5003;67809;55.034;73.462;2023-12-20T15:20:08;60.00;41.50;25.00
78512;PMS5003;67809;55.034;73.462;2023-12-20T15:22:49;53.00;39.00;23.00
78512;PMS5003;67809;55.034;73.462;2023-12-20T15:25:15;59.00;41.25;24.25
78512;PMS5003;67809;55.034;73.462;2023-12-20T15:27:48;44.67;33.00;21.00
78512;PMS5003;67809;55.034;73.462;2023-12-20T15:30:21;43.50;32.00;19.50
78512;PMS5003;67809;55.034;73.462;2023-12-20T15:32:49;52.00;37.00;22.50
78512;PMS5003;67809;55.034;73.462;2023-12-20T15:35:15;42.75;31.25;19.00
78512;PMS5003;67809;55.034;73.462;2023-12-20T15:37:41;34.25;26.50;16.50
78512;PMS5003;67809;55.034;73.462;2023-12-20T15:40:08;37.75;28.25;17.00
78512;PMS5003;67809;55.034;73.462;2023-12-20T15:42:36;33.25;25.75;15.50
78512;PMS5003;67809;55.034;73.462;2023-12-20T15:45:03;33.00;25.00;16.00
78512;PMS5003;67809;55.034;73.462;2023-12-20T15:47:29;38.00;27.33;16.00
78512;PMS5003;67809;55.034;73.462;2023-12-20T15:49:55;36.25;27.50;17.25
78512;PMS5003;67809;55.034;73.462;2023-12-20T15:52:21;38.75;27.25;16.00
78512;PMS5003;67809;55.034;73.462;2023-12-20T15:54:47;37.00;28.25;17.00
78512;PMS5003;67809;55.034;73.462;2023-12-20T15:57:13;31.50;25.00;16.00
78512;PMS5003;67809;55.034;73.462;2023-12-20T15:59:42;38.25;27.00;15.25
78512;PMS5003;67809;55.034;73.462;2023-12-20T16:02:08;33.00;25.25;16.00
78512;PMS5003;67809;55.034;73.462;2023-12-20T16:04:35;35.00;28.00;17.00
78512;PMS5003;67809;55.034;73.462;2023-12-20T16:07:02;33.33;27.00;16.00
78512;PMS5003;67809;55.034;73.462;2023-12-20T16:09:28;42.00;30.25;18.00
78512;PMS5003;67809;55.034;73.462;2023-12-20T16:11:54;35.00;27.00;17.00
78512;PMS5003;67809;55.034;73.462;2023-12-20T16:14:20;38.00;28.00;16.25
78512;PMS5003;67809;55.034;73.462;2023-12-20T16:16:53;32.75;25.00;15.75
78512;PMS5003;67809;55.034;73.462;2023-12-20T16:19:19;33.25;25.75;15.75
78512;PMS5003;67809;55.034;73.462;2023-12-20T16:21:45;33.25;26.00;17.00
78512;PMS5003;67809;55.034;73.462;2023-12-20T16:24:12;37.00;27.00;16.00
78512;PMS5003;67809;55.034;73.462;2023-12-20T16:26:38;32.50;25.00;15.00
78512;PMS5003;67809;55.034;73.462;2023-12-20T16:29:04;36.25;27.00;18.00
78512;PMS5003;67809;55.034;73.462;2023-12-20T16:31:30;33.75;25.00;17.00
78512;PMS5003;67809;55.034;73.462;2023-12-20T16:33:56;29.00;23.00;12.75
78512;PMS5003;67809;55.034;73.462;2023-12-20T16:36:22;35.00;27.00;16.00
78512;PMS5003;67809;55.034;73.462;2023-12-20T16:38:48;30.25;23.00;13.50
78512;PMS5003;67809;55.034;73.462;2023-12-20T16:41:14;31.75;23.50;14.00
78512;PMS5003;67809;55.034;73.462;2023-12-20T16:43:40;31.50;23.25;14.75
78512;PMS5003;67809;55.034;73.462;2023-12-20T16:46:06;28.50;23.00;13.00
78512;PMS5003;67809;55.034;73.462;2023-12-20T16:48:33;32.00;23.67;14.00
78512;PMS5003;67809;55.034;73.462;2023-12-20T16:50:59;28.75;21.00;13.00
78512;PMS5003;67809;55.034;73.462;2023-12-20T16:53:25;25.25;20.75;12.75
78512;PMS5003;67809;55.034;73.462;2023-12-20T16:55:52;28.25;21.25;12.50
78512;PMS5003;67809;55.034;73.462;2023-12-20T16:58:21;27.50;21.25;12.50
78512;PMS5003;67809;55.034;73.462;2023-12-20T17:00:47;31.00;24.00;15.00
78512;PMS5003;67809;55.034;73.462;2023-12-20T17:03:13;29.00;22.00;12.25
78512;PMS5003;67809;55.034;73.462;2023-12-20T17:05:39;27.25;21.25;13.00